sensor_id;sensor_type;location;lat;lon;timestamp;temperature;humidity
19248;DHT22;9758;48.640;8.148;2023-12-20T00:02:04;10.10;60.70
19248;DHT22;9758;48.640;8.148;2023-12-20T00:04:30;10.10;60.70
19248;DHT22;9758;48.640;8.148;2023-12-20T00:06:57;10.00;60.60
19248;DHT22;9758;48.640;8.148;2023-12-20T00:09:24;9.90;60.60
19248;DHT22;9758;48.640;8.148;2023-12-20T00:11:52;9.90;60.80
19248;DHT22;9758;48.640;8.148;2023-12-20T00:14:18;9.80;60.80
19248;DHT22;9758;48.640;8.148;2023-12-20T00:16:45;9.80;60.80
19248;DHT22;9758;48.640;8.148;2023-12-20T00:19:12;9.80;60.90
19248;DHT22;9758;48.640;8.148;2023-12-20T00:21:39;9.80;60.90
19248;DHT22;9758;48.640;8.148;2023-12-20T00:24:22;9.80;60.90
19248;DHT22;9758;48.640;8.148;2023-12-20T00:26:48;9.70;61.00
19248;DHT22;9758;48.640;8.148;2023-12-20T00:29:16;9.70;60.90
19248;DHT22;9758;48.640;8.148;2023-12-20T00:31:43;9.70;60.90
19248;DHT22;9758;48.640;8.148;2023-12-20T00:34:10;9.60;60.90
19248;DHT22;9758;48.640;8.148;2023-12-20T00:36:37;9.50;61.10
19248;DHT22;9758;48.640;8.148;2023-12-20T00:39:03;9.50;61.10
19248;DHT22;9758;48.640;8.148;2023-12-20T00:41:30;9.50;61.20
19248;DHT22;9758;48.640;8.148;2023-12-20T00:43:57;9.50;61.30
19248;DHT22;9758;48.640;8.148;2023-12-20T00:46:25;9.40;61.30
19248;DHT22;9758;48.640;8.148;2023-12-20T00:48:51;9.40;61.30
19248;DHT22;9758;48.640;8.148;2023-12-20T00:51:18;9.40;61.40
19248;DHT22;9758;48.640;8.148;2023-12-20T00:53:45;9.40;61.50
19248;DHT22;9758;48.640;8.148;2023-12-20T00:56:14;9.40;61.50
19248;DHT22;9758;48.640;8.148;2023-12-20T00:58:41;9.40;61.50
19248;DHT22;9758;48.640;8.148;2023-12-20T01:01:08;9.40;61.50
19248;DHT22;9758;48.640;8.148;2023-12-20T01:03:36;9.40;61.50
19248;DHT22;9758;48.640;8.148;2023-12-20T01:06:03;9.30;61.50
19248;DHT22;9758;48.640;8.148;2023-12-20T01:08:30;9.30;61.50
19248;DHT22;9758;48.640;8.148;2023-12-20T01:10:57;9.30;61.50
19248;DHT22;9758;48.640;8.148;2023-12-20T01:13:23;9.40;61.70
19248;DHT22;9758;48.640;8.148;2023-12-20T01:15:50;9.40;61.70
19248;DHT22;9758;48.640;8.148;2023-12-20T01:18:17;9.40;62.00
19248;DHT22;9758;48.640;8.148;2023-12-20T01:20:45;9.40;61.70
19248;DHT22;9758;48.640;8.148;2023-12-20T01:23:11;9.30;61.70
19248;DHT22;9758;48.640;8.148;2023-12-20T01:25:38;9.30;61.70
19248;DHT22;9758;48.640;8.148;2023-12-20T01:28:05;9.30;61.80
19248;DHT22;9758;48.640;8.148;2023-12-20T01:30:32;9.30;61.80
19248;DHT22;9758;48.640;8.148;2023-12-20T01:33:00;9.30;61.80
19248;DHT22;9758;48.640;8.148;2023-12-20T01:35:27;9.30;61.80
19248;DHT22;9758;48.640;8.148;2023-12-20T01:37:55;9.30;61.90
19248;DHT22;9758;48.640;8.148;2023-12-20T01:40:22;9.30;61.90
19248;DHT22;9758;48.640;8.148;2023-12-20T01:42:58;9.30;61.80
19248;DHT22;9758;48.640;8.148;2023-12-20T01:45:24;9.30;61.80
19248;DHT22;9758;48.640;8.148;2023-12-20T01:47:52;9.40;61.90
19248;DHT22;9758;48.640;8.148;2023-12-20T01:50:19;9.40;61.90
19248;DHT22;9758;48.640;8.148;2023-12-20T01:52:45;9.30;61.80
19248;DHT22;9758;48.640;8.148;2023-12-20T01:55:13;9.40;61.80
19248;DHT22;9758;48.640;8.148;2023-12-20T01:57:41;9.40;61.90
19248;DHT22;9758;48.640;8.148;2023-12-20T02:00:10;9.40;62.00
19248;DHT22;9758;48.640;8.148;2023-12-20T02:02:39;9.30;61.80
19248;DHT22;9758;48.640;8.148;2023-12-20T02:05:06;9.30;61.90
19248;DHT22;9758;48.640;8.148;2023-12-20T02:07:33;9.40;61.90
19248;DHT22;9758;48.640;8.148;2023-12-20T02:10:00;9.40;61.80
19248;DHT22;9758;48.640;8.148;2023-12-20T02:12:29;9.30;61.80
19248;DHT22;9758;48.640;8.148;2023-12-20T02:14:55;9.30;61.80
19248;DHT22;9758;48.640;8.148;2023-12-20T02:17:22;9.30;61.90
19248;DHT22;9758;48.640;8.148;2023-12-20T02:19:49;9.30;62.70
19248;DHT22;9758;48.640;8.148;2023-12-20T02:22:17;9.30;62.00
19248;DHT22;9758;48.640;8.148;2023-12-20T02:24:44;9.30;61.90
19248;DHT22;9758;48.640;8.148;2023-12-20T02:27:11;9.30;62.00
19248;DHT22;9758;48.640;8.148;2023-12-20T02:29:38;9.30;62.00
19248;DHT22;9758;48.640;8.148;2023-12-20T02:32:05;9.30;61.90
19248;DHT22;9758;48.640;8.148;2023-12-20T02:34:32;9.30;62.00
19248;DHT22;9758;48.640;8.148;2023-12-20T02:36:59;9.30;62.00
19248;DHT22;9758;48.640;8.148;2023-12-20T02:39:27;9.30;62.00
19248;DHT22;9758;48.640;8.148;2023-12-20T02:41:53;9.30;62.00
19248;DHT22;9758;48.640;8.148;2023-12-20T02:44:20;9.30;62.10
19248;DHT22;9758;48.640;8.148;2023-12-20T02:46:47;9.30;62.00
19248;DHT22;9758;48.640;8.148;2023-12-20T02:49:14;9.20;62.00
19248;DHT22;9758;48.640;8.148;2023-12-20T02:51:40;9.30;62.10
19248;DHT22;9758;48.640;8.148;2023-12-20T02:54:07;9.30;62.10
19248;DHT22;9758;48.640;8.148;2023-12-20T02:56:35;9.30;62.00
19248;DHT22;9758;48.640;8.148;2023-12-20T02:59:02;9.30;62.00
19248;DHT22;9758;48.640;8.148;2023-12-20T03:01:31;9.30;62.10
19248;DHT22;9758;48.640;8.148;2023-12-20T03:03:58;9.30;62.20
19248;DHT22;9758;48.640;8.148;2023-12-20T03:06:24;9.30;62.10
19248;DHT22;9758;48.640;8.148;2023-12-20T03:08:51;9.30;62.10
19248;DHT22;9758;48.640;8.148;2023-12-20T03:11:21;9.30;62.10
19248;DHT22;9758;48.640;8.148;2023-12-20T03:13:49;9.30;62.10
19248;DHT22;9758;48.640;8.148;2023-12-20T03:16:15;9.30;62.10
19248;DHT22;9758;48.640;8.148;2023-12-20T03:18:42;9.30;62.00
19248;DHT22;9758;48.640;8.148;2023-12-20T03:21:09;9.30;62.00
19248;DHT22;9758;48.640;8.148;2023-12-20T03:23:36;9.30;62.00
19248;DHT22;9758;48.640;8.148;2023-12-20T03:26:02;9.30;62.10
19248;DHT22;9758;48.640;8.148;2023-12-20T03:28:29;9.20;62.10
19248;DHT22;9758;48.640;8.148;2023-12-20T03:30:57;9.30;62.20
19248;DHT22;9758;48.640;8.148;2023-12-20T03:33:24;9.30;62.10
19248;DHT22;9758;48.640;8.148;2023-12-20T03:35:51;9.30;62.20
19248;DHT22;9758;48.640;8.148;2023-12-20T03:38:18;9.30;62.10
19248;DHT22;9758;48.640;8.148;2023-12-20T03:40:44;9.30;62.10
19248;DHT22;9758;48.640;8.148;2023-12-20T03:43:11;9.20;62.10
19248;DHT22;9758;48.640;8.148;2023-12-20T03:45:38;9.20;62.20
19248;DHT22;9758;48.640;8.148;2023-12-20T03:48:06;9.20;62.30
19248;DHT22;9758;48.640;8.148;2023-12-20T03:50:33;9.30;62.30
19248;DHT22;9758;48.640;8.148;2023-12-20T03:53:00;9.20;62.10
19248;DHT22;9758;48.640;8.148;2023-12-20T03:55:27;9.20;62.20
19248;DHT22;9758;48.640;8.148;2023-12-20T03:57:54;9.20;62.30
19248;DHT22;9758;48.640;8.148;2023-12-20T04:00:20;9.30;62.30
19248;DHT22;9758;48.640;8.148;2023-12-20T04:02:47;9.30;62.30
19248;DHT22;9758;48.640;8.148;2023-12-20T04:05:15;9.20;62.20
19248;DHT22;9758;48.640;8.148;2023-12-20T04:07:42;9.30;62.20
19248;DHT22;9758;48.640;8.148;2023-12-20T04:10:09;9.30;62.30
19248;DHT22;9758;48.640;8.148;2023-12-20T04:12:36;9.20;62.10
19248;DHT22;9758;48.640;8.148;2023-12-20T04:15:03;9.30;62.20
19248;DHT22;9758;48.640;8.148;2023-12-20T04:17:34;9.30;62.10
19248;DHT22;9758;48.640;8.148;2023-12-20T04:20:01;9.20;62.10
19248;DHT22;9758;48.640;8.148;2023-12-20T04:22:29;9.20;62.10
19248;DHT22;9758;48.640;8.148;2023-12-20T04:24:56;9.20;62.10
19248;DHT22;9758;48.640;8.148;2023-12-20T04:27:22;9.20;62.20
19248;DHT22;9758;48.640;8.148;2023-12-20T04:29:49;9.20;62.30
19248;DHT22;9758;48.640;8.148;2023-12-20T04:32:16;9.20;62.30
19248;DHT22;9758;48.640;8.148;2023-12-20T04:34:42;9.20;62.30
19248;DHT22;9758;48.640;8.148;2023-12-20T04:37:09;9.20;62.40
19248;DHT22;9758;48.640;8.148;2023-12-20T04:39:37;9.20;62.40
19248;DHT22;9758;48.640;8.148;2023-12-20T04:42:04;9.20;63.20
19248;DHT22;9758;48.640;8.148;2023-12-20T04:44:31;9.20;62.40
19248;DHT22;9758;48.640;8.148;2023-12-20T04:46:57;9.20;62.40
19248;DHT22;9758;48.640;8.148;2023-12-20T04:49:24;9.20;62.40
19248;DHT22;9758;48.640;8.148;2023-12-20T04:51:51;9.20;62.30
19248;DHT22;9758;48.640;8.148;2023-12-20T04:54:17;9.20;62.40
19248;DHT22;9758;48.640;8.148;2023-12-20T04:56:45;9.20;62.40
19248;DHT22;9758;48.640;8.148;2023-12-20T04:59:12;9.20;62.40
19248;DHT22;9758;48.640;8.148;2023-12-20T05:01:40;9.20;62.40
19248;DHT22;9758;48.640;8.148;2023-12-20T05:04:07;9.20;62.30
19248;DHT22;9758;48.640;8.148;2023-12-20T05:06:33;9.20;62.30
19248;DHT22;9758;48.640;8.148;2023-12-20T05:09:00;9.20;62.40
19248;DHT22;9758;48.640;8.148;2023-12-20T05:11:27;9.20;62.40
19248;DHT22;9758;48.640;8.148;2023-12-20T05:13:55;9.20;62.40
19248;DHT22;9758;48.640;8.148;2023-12-20T05:16:22;9.20;62.40
19248;DHT22;9758;48.640;8.148;2023-12-20T05:18:49;9.20;62.40
19248;DHT22;9758;48.640;8.148;2023-12-20T05:21:17;9.20;62.50
19248;DHT22;9758;48.640;8.148;2023-12-20T05:23:44;9.20;62.40
19248;DHT22;9758;48.640;8.148;2023-12-20T05:26:11;9.20;62.40
19248;DHT22;9758;48.640;8.148;2023-12-20T05:28:38;9.20;62.30
19248;DHT22;9758;48.640;8.148;2023-12-20T05:31:06;9.20;62.40
19248;DHT22;9758;48.640;8.148;2023-12-20T05:33:33;9.20;62.40
19248;DHT22;9758;48.640;8.148;2023-12-20T05:36:00;9.20;62.50
19248;DHT22;9758;48.640;8.148;2023-12-20T05:38:27;9.10;62.40
19248;DHT22;9758;48.640;8.148;2023-12-20T05:40:53;9.20;62.50
19248;DHT22;9758;48.640;8.148;2023-12-20T05:43:20;9.20;62.50
19248;DHT22;9758;48.640;8.148;2023-12-20T05:45:47;9.20;62.50
19248;DHT22;9758;48.640;8.148;2023-12-20T05:48:15;9.20;62.50
19248;DHT22;9758;48.640;8.148;2023-12-20T05:50:41;9.20;62.60
19248;DHT22;9758;48.640;8.148;2023-12-20T05:53:08;9.20;63.20
19248;DHT22;9758;48.640;8.148;2023-12-20T05:55:35;9.20;62.50
19248;DHT22;9758;48.640;8.148;2023-12-20T05:58:01;9.20;62.40
19248;DHT22;9758;48.640;8.148;2023-12-20T06:00:28;9.10;62.40
19248;DHT22;9758;48.640;8.148;2023-12-20T06:02:55;9.10;62.50
19248;DHT22;9758;48.640;8.148;2023-12-20T06:05:23;9.10;62.50
19248;DHT22;9758;48.640;8.148;2023-12-20T06:07:50;9.10;62.40
19248;DHT22;9758;48.640;8.148;2023-12-20T06:10:16;9.10;62.60
19248;DHT22;9758;48.640;8.148;2023-12-20T06:12:43;9.10;62.70
19248;DHT22;9758;48.640;8.148;2023-12-20T06:15:12;9.10;62.70
19248;DHT22;9758;48.640;8.148;2023-12-20T06:17:39;9.10;62.70
19248;DHT22;9758;48.640;8.148;2023-12-20T06:20:07;9.00;62.60
19248;DHT22;9758;48.640;8.148;2023-12-20T06:22:36;9.00;62.70
19248;DHT22;9758;48.640;8.148;2023-12-20T06:25:03;9.00;62.70
19248;DHT22;9758;48.640;8.148;2023-12-20T06:27:29;9.00;62.70
19248;DHT22;9758;48.640;8.148;2023-12-20T06:29:58;9.00;62.70
19248;DHT22;9758;48.640;8.148;2023-12-20T06:32:24;9.00;62.70
19248;DHT22;9758;48.640;8.148;2023-12-20T06:34:51;9.00;62.80
19248;DHT22;9758;48.640;8.148;2023-12-20T06:37:18;8.90;62.70
19248;DHT22;9758;48.640;8.148;2023-12-20T06:39:46;8.90;62.90
19248;DHT22;9758;48.640;8.148;2023-12-20T06:42:13;8.90;62.90
19248;DHT22;9758;48.640;8.148;2023-12-20T06:44:39;8.90;62.90
19248;DHT22;9758;48.640;8.148;2023-12-20T06:47:06;8.90;63.00
19248;DHT22;9758;48.640;8.148;2023-12-20T06:49:33;8.90;63.00
19248;DHT22;9758;48.640;8.148;2023-12-20T06:52:00;8.90;63.00
19248;DHT22;9758;48.640;8.148;2023-12-20T06:54:26;8.90;63.00
19248;DHT22;9758;48.640;8.148;2023-12-20T06:56:54;8.80;63.00
19248;DHT22;9758;48.640;8.148;2023-12-20T06:59:21;8.80;63.10
19248;DHT22;9758;48.640;8.148;2023-12-20T07:01:48;8.80;63.10
19248;DHT22;9758;48.640;8.148;2023-12-20T07:04:15;8.80;63.20
19248;DHT22;9758;48.640;8.148;2023-12-20T07:06:45;8.80;63.10
19248;DHT22;9758;48.640;8.148;2023-12-20T07:09:13;8.90;63.10
19248;DHT22;9758;48.640;8.148;2023-12-20T07:11:40;8.80;63.00
19248;DHT22;9758;48.640;8.148;2023-12-20T07:14:08;8.80;63.10
19248;DHT22;9758;48.640;8.148;2023-12-20T07:16:34;8.80;63.30
19248;DHT22;9758;48.640;8.148;2023-12-20T07:19:01;8.70;63.20
19248;DHT22;9758;48.640;8.148;2023-12-20T07:21:28;8.70;63.30
19248;DHT22;9758;48.640;8.148;2023-12-20T07:23:55;8.70;63.30
19248;DHT22;9758;48.640;8.148;2023-12-20T07:26:22;8.70;63.60
19248;DHT22;9758;48.640;8.148;2023-12-20T07:28:48;8.80;63.50
19248;DHT22;9758;48.640;8.148;2023-12-20T07:31:16;8.80;63.30
19248;DHT22;9758;48.640;8.148;2023-12-20T07:33:43;8.70;63.30
19248;DHT22;9758;48.640;8.148;2023-12-20T07:36:10;8.70;63.40
19248;DHT22;9758;48.640;8.148;2023-12-20T07:38:37;8.70;63.50
19248;DHT22;9758;48.640;8.148;2023-12-20T07:41:03;8.70;63.50
19248;DHT22;9758;48.640;8.148;2023-12-20T07:43:30;8.60;63.50
19248;DHT22;9758;48.640;8.148;2023-12-20T07:45:57;8.60;63.50
19248;DHT22;9758;48.640;8.148;2023-12-20T07:48:25;8.60;63.60
19248;DHT22;9758;48.640;8.148;2023-12-20T07:50:51;8.50;63.60
19248;DHT22;9758;48.640;8.148;2023-12-20T07:53:19;8.50;63.70
19248;DHT22;9758;48.640;8.148;2023-12-20T07:55:46;8.50;63.80
19248;DHT22;9758;48.640;8.148;2023-12-20T07:58:12;8.50;63.80
19248;DHT22;9758;48.640;8.148;2023-12-20T08:00:39;8.50;63.70
19248;DHT22;9758;48.640;8.148;2023-12-20T08:03:06;8.50;63.80
19248;DHT22;9758;48.640;8.148;2023-12-20T08:05:34;8.50;63.60
19248;DHT22;9758;48.640;8.148;2023-12-20T08:08:00;8.60;63.70
19248;DHT22;9758;48.640;8.148;2023-12-20T08:10:27;8.60;63.60
19248;DHT22;9758;48.640;8.148;2023-12-20T08:12:55;8.60;63.50
19248;DHT22;9758;48.640;8.148;2023-12-20T08:15:22;8.60;63.50
19248;DHT22;9758;48.640;8.148;2023-12-20T08:17:49;8.60;63.60
19248;DHT22;9758;48.640;8.148;2023-12-20T08:20:16;8.60;63.60
19248;DHT22;9758;48.640;8.148;2023-12-20T08:22:44;8.70;63.60
19248;DHT22;9758;48.640;8.148;2023-12-20T08:25:11;8.70;63.60
19248;DHT22;9758;48.640;8.148;2023-12-20T08:27:39;8.70;63.50
19248;DHT22;9758;48.640;8.148;2023-12-20T08:30:08;8.80;63.40
19248;DHT22;9758;48.640;8.148;2023-12-20T08:32:35;8.80;63.30
19248;DHT22;9758;48.640;8.148;2023-12-20T08:35:02;8.80;63.10
19248;DHT22;9758;48.640;8.148;2023-12-20T08:37:29;8.80;63.00
19248;DHT22;9758;48.640;8.148;2023-12-20T08:39:57;8.80;62.90
19248;DHT22;9758;48.640;8.148;2023-12-20T08:42:24;8.80;63.00
19248;DHT22;9758;48.640;8.148;2023-12-20T08:45:20;8.80;62.90
19248;DHT22;9758;48.640;8.148;2023-12-20T08:47:46;8.80;62.90
19248;DHT22;9758;48.640;8.148;2023-12-20T08:50:13;8.80;62.90
19248;DHT22;9758;48.640;8.148;2023-12-20T08:52:40;8.90;63.00
19248;DHT22;9758;48.640;8.148;2023-12-20T08:55:09;8.90;62.90
19248;DHT22;9758;48.640;8.148;2023-12-20T08:57:36;8.90;62.90
19248;DHT22;9758;48.640;8.148;2023-12-20T09:00:03;8.90;62.90
19248;DHT22;9758;48.640;8.148;2023-12-20T09:02:33;9.00;63.80
19248;DHT22;9758;48.640;8.148;2023-12-20T09:05:01;9.00;63.00
19248;DHT22;9758;48.640;8.148;2023-12-20T09:07:31;9.00;63.00
19248;DHT22;9758;48.640;8.148;2023-12-20T09:09:58;9.10;62.90
19248;DHT22;9758;48.640;8.148;2023-12-20T09:12:26;9.10;62.90
19248;DHT22;9758;48.640;8.148;2023-12-20T09:14:53;9.10;62.70
19248;DHT22;9758;48.640;8.148;2023-12-20T09:17:20;9.10;62.70
19248;DHT22;9758;48.640;8.148;2023-12-20T09:19:48;9.10;62.60
19248;DHT22;9758;48.640;8.148;2023-12-20T09:22:17;9.10;62.60
19248;DHT22;9758;48.640;8.148;2023-12-20T09:24:44;9.10;62.40
19248;DHT22;9758;48.640;8.148;2023-12-20T09:27:11;9.10;62.60
19248;DHT22;9758;48.640;8.148;2023-12-20T09:29:39;9.00;62.70
19248;DHT22;9758;48.640;8.148;2023-12-20T09:32:06;9.00;62.90
19248;DHT22;9758;48.640;8.148;2023-12-20T09:34:33;9.00;62.80
19248;DHT22;9758;48.640;8.148;2023-12-20T09:37:00;9.00;62.70
19248;DHT22;9758;48.640;8.148;2023-12-20T09:39:28;9.00;62.60
19248;DHT22;9758;48.640;8.148;2023-12-20T09:42:00;8.90;62.70
19248;DHT22;9758;48.640;8.148;2023-12-20T09:44:28;8.90;63.00
19248;DHT22;9758;48.640;8.148;2023-12-20T09:46:56;8.90;63.10
19248;DHT22;9758;48.640;8.148;2023-12-20T09:49:24;8.90;63.00
19248;DHT22;9758;48.640;8.148;2023-12-20T09:51:53;9.00;63.00
19248;DHT22;9758;48.640;8.148;2023-12-20T09:54:21;9.00;62.70
19248;DHT22;9758;48.640;8.148;2023-12-20T09:56:48;8.90;62.70
19248;DHT22;9758;48.640;8.148;2023-12-20T09:59:15;8.90;62.90
19248;DHT22;9758;48.640;8.148;2023-12-20T10:01:48;8.80;63.00
19248;DHT22;9758;48.640;8.148;2023-12-20T10:04:17;8.90;63.00
19248;DHT22;9758;48.640;8.148;2023-12-20T10:06:44;8.90;62.90
19248;DHT22;9758;48.640;8.148;2023-12-20T10:09:11;8.90;62.80
19248;DHT22;9758;48.640;8.148;2023-12-20T10:11:39;8.90;62.90
19248;DHT22;9758;48.640;8.148;2023-12-20T10:14:06;8.90;62.70
19248;DHT22;9758;48.640;8.148;2023-12-20T10:16:33;8.90;62.90
19248;DHT22;9758;48.640;8.148;2023-12-20T10:19:01;9.00;62.90
19248;DHT22;9758;48.640;8.148;2023-12-20T10:21:29;9.00;62.60
19248;DHT22;9758;48.640;8.148;2023-12-20T10:23:56;9.00;62.60
19248;DHT22;9758;48.640;8.148;2023-12-20T10:26:24;9.00;62.60
19248;DHT22;9758;48.640;8.148;2023-12-20T10:28:52;9.10;62.50
19248;DHT22;9758;48.640;8.148;2023-12-20T10:31:29;9.10;62.40
19248;DHT22;9758;48.640;8.148;2023-12-20T10:33:57;9.10;62.20
19248;DHT22;9758;48.640;8.148;2023-12-20T10:36:25;9.10;62.20
19248;DHT22;9758;48.640;8.148;2023-12-20T10:38:59;9.10;62.20
19248;DHT22;9758;48.640;8.148;2023-12-20T10:41:28;9.10;62.00
19248;DHT22;9758;48.640;8.148;2023-12-20T10:43:56;9.10;62.10
19248;DHT22;9758;48.640;8.148;2023-12-20T10:46:25;9.10;62.10
19248;DHT22;9758;48.640;8.148;2023-12-20T10:48:54;9.10;62.00
19248;DHT22;9758;48.640;8.148;2023-12-20T10:51:21;9.10;62.00
19248;DHT22;9758;48.640;8.148;2023-12-20T10:53:48;9.10;62.10
19248;DHT22;9758;48.640;8.148;2023-12-20T10:56:17;9.10;62.00
19248;DHT22;9758;48.640;8.148;2023-12-20T10:58:45;9.10;61.90
19248;DHT22;9758;48.640;8.148;2023-12-20T11:01:23;9.20;62.00
19248;DHT22;9758;48.640;8.148;2023-12-20T11:03:52;9.20;61.90
19248;DHT22;9758;48.640;8.148;2023-12-20T11:06:27;9.20;61.80
19248;DHT22;9758;48.640;8.148;2023-12-20T11:09:03;9.20;61.80
19248;DHT22;9758;48.640;8.148;2023-12-20T11:11:42;9.20;61.70
19248;DHT22;9758;48.640;8.148;2023-12-20T11:14:16;9.20;61.70
19248;DHT22;9758;48.640;8.148;2023-12-20T11:16:45;9.20;62.10
19248;DHT22;9758;48.640;8.148;2023-12-20T11:19:12;9.20;61.80
19248;DHT22;9758;48.640;8.148;2023-12-20T11:21:40;9.20;61.70
19248;DHT22;9758;48.640;8.148;2023-12-20T11:24:07;9.20;61.70
19248;DHT22;9758;48.640;8.148;2023-12-20T11:26:33;9.20;61.70
19248;DHT22;9758;48.640;8.148;2023-12-20T11:29:33;9.20;61.70
19248;DHT22;9758;48.640;8.148;2023-12-20T11:32:03;9.20;61.80
19248;DHT22;9758;48.640;8.148;2023-12-20T11:34:33;9.20;61.60
19248;DHT22;9758;48.640;8.148;2023-12-20T11:37:03;9.20;61.60
19248;DHT22;9758;48.640;8.148;2023-12-20T11:39:30;9.20;61.60
19248;DHT22;9758;48.640;8.148;2023-12-20T11:42:04;9.20;61.40
19248;DHT22;9758;48.640;8.148;2023-12-20T11:44:33;9.20;61.50
19248;DHT22;9758;48.640;8.148;2023-12-20T11:47:00;9.20;61.50
19248;DHT22;9758;48.640;8.148;2023-12-20T11:49:26;9.20;61.50
19248;DHT22;9758;48.640;8.148;2023-12-20T11:51:54;9.20;61.50
19248;DHT22;9758;48.640;8.148;2023-12-20T11:54:21;9.20;61.50
19248;DHT22;9758;48.640;8.148;2023-12-20T11:57:05;9.30;61.40
19248;DHT22;9758;48.640;8.148;2023-12-20T11:59:33;9.30;61.40
19248;DHT22;9758;48.640;8.148;2023-12-20T12:02:00;9.30;61.40
19248;DHT22;9758;48.640;8.148;2023-12-20T12:04:26;9.20;61.40
19248;DHT22;9758;48.640;8.148;2023-12-20T12:06:53;9.30;61.40
19248;DHT22;9758;48.640;8.148;2023-12-20T12:09:20;9.30;61.30
19248;DHT22;9758;48.640;8.148;2023-12-20T12:11:47;9.30;61.20
19248;DHT22;9758;48.640;8.148;2023-12-20T12:14:14;9.30;61.20
19248;DHT22;9758;48.640;8.148;2023-12-20T12:16:43;9.30;61.20
19248;DHT22;9758;48.640;8.148;2023-12-20T12:19:20;9.30;61.10
19248;DHT22;9758;48.640;8.148;2023-12-20T12:21:49;9.30;61.10
19248;DHT22;9758;48.640;8.148;2023-12-20T12:24:20;9.30;61.10
19248;DHT22;9758;48.640;8.148;2023-12-20T12:26:50;9.30;61.10
19248;DHT22;9758;48.640;8.148;2023-12-20T12:29:16;9.30;61.10
19248;DHT22;9758;48.640;8.148;2023-12-20T12:31:44;9.30;61.10
19248;DHT22;9758;48.640;8.148;2023-12-20T12:34:11;9.30;60.90
19248;DHT22;9758;48.640;8.148;2023-12-20T12:36:39;9.20;61.00
19248;DHT22;9758;48.640;8.148;2023-12-20T12:39:06;9.20;61.10
19248;DHT22;9758;48.640;8.148;2023-12-20T12:41:34;9.20;61.10
19248;DHT22;9758;48.640;8.148;2023-12-20T12:44:00;9.20;61.20
19248;DHT22;9758;48.640;8.148;2023-12-20T12:46:27;9.20;61.10
19248;DHT22;9758;48.640;8.148;2023-12-20T12:48:55;9.20;61.10
19248;DHT22;9758;48.640;8.148;2023-12-20T12:51:22;9.20;61.00
19248;DHT22;9758;48.640;8.148;2023-12-20T12:53:49;9.20;61.00
19248;DHT22;9758;48.640;8.148;2023-12-20T12:56:15;9.20;61.10
19248;DHT22;9758;48.640;8.148;2023-12-20T12:58:42;9.10;60.90
19248;DHT22;9758;48.640;8.148;2023-12-20T13:01:09;9.10;61.10
19248;DHT22;9758;48.640;8.148;2023-12-20T13:03:36;9.20;61.20
19248;DHT22;9758;48.640;8.148;2023-12-20T13:06:04;9.20;61.20
19248;DHT22;9758;48.640;8.148;2023-12-20T13:08:34;9.20;61.10
19248;DHT22;9758;48.640;8.148;2023-12-20T13:11:01;9.10;60.90
19248;DHT22;9758;48.640;8.148;2023-12-20T13:13:30;9.10;61.10
19248;DHT22;9758;48.640;8.148;2023-12-20T13:15:57;9.10;61.10
19248;DHT22;9758;48.640;8.148;2023-12-20T13:18:25;9.10;61.10
19248;DHT22;9758;48.640;8.148;2023-12-20T13:20:51;9.10;60.80
19248;DHT22;9758;48.640;8.148;2023-12-20T13:23:19;9.00;60.80
19248;DHT22;9758;48.640;8.148;2023-12-20T13:25:47;8.90;60.90
19248;DHT22;9758;48.640;8.148;2023-12-20T13:28:14;8.90;61.10
19248;DHT22;9758;48.640;8.148;2023-12-20T13:30:41;8.90;61.10
19248;DHT22;9758;48.640;8.148;2023-12-20T13:33:08;8.90;61.10
19248;DHT22;9758;48.640;8.148;2023-12-20T13:35:35;8.90;61.10
19248;DHT22;9758;48.640;8.148;2023-12-20T13:38:02;8.90;61.00
19248;DHT22;9758;48.640;8.148;2023-12-20T13:40:30;8.80;61.10
19248;DHT22;9758;48.640;8.148;2023-12-20T13:43:12;8.80;61.20
19248;DHT22;9758;48.640;8.148;2023-12-20T13:45:39;8.80;61.10
19248;DHT22;9758;48.640;8.148;2023-12-20T13:48:06;8.80;61.10
19248;DHT22;9758;48.640;8.148;2023-12-20T13:50:33;8.80;61.20
19248;DHT22;9758;48.640;8.148;2023-12-20T13:53:32;8.80;61.10
19248;DHT22;9758;48.640;8.148;2023-12-20T13:56:00;8.90;61.20
19248;DHT22;9758;48.640;8.148;2023-12-20T13:58:27;8.90;61.10
19248;DHT22;9758;48.640;8.148;2023-12-20T14:00:53;8.90;61.10
19248;DHT22;9758;48.640;8.148;2023-12-20T14:03:20;8.90;61.00
19248;DHT22;9758;48.640;8.148;2023-12-20T14:05:47;8.90;61.10
19248;DHT22;9758;48.640;8.148;2023-12-20T14:08:14;8.90;61.10
19248;DHT22;9758;48.640;8.148;2023-12-20T14:10:40;8.90;61.10
19248;DHT22;9758;48.640;8.148;2023-12-20T14:13:08;8.80;61.10
19248;DHT22;9758;48.640;8.148;2023-12-20T14:15:35;8.80;61.10
19248;DHT22;9758;48.640;8.148;2023-12-20T14:18:04;8.90;61.20
19248;DHT22;9758;48.640;8.148;2023-12-20T14:20:32;8.80;61.10
19248;DHT22;9758;48.640;8.148;2023-12-20T14:23:00;8.90;61.10
19248;DHT22;9758;48.640;8.148;2023-12-20T14:25:26;8.80;61.00
19248;DHT22;9758;48.640;8.148;2023-12-20T14:27:53;8.80;61.10
19248;DHT22;9758;48.640;8.148;2023-12-20T14:30:21;8.80;61.10
19248;DHT22;9758;48.640;8.148;2023-12-20T14:32:48;8.80;61.10
19248;DHT22;9758;48.640;8.148;2023-12-20T14:35:14;8.80;61.20
19248;DHT22;9758;48.640;8.148;2023-12-20T14:37:41;8.80;61.20
19248;DHT22;9758;48.640;8.148;2023-12-20T14:40:10;8.80;61.10
19248;DHT22;9758;48.640;8.148;2023-12-20T14:42:40;8.80;61.20
19248;DHT22;9758;48.640;8.148;2023-12-20T14:45:08;8.80;61.20
19248;DHT22;9758;48.640;8.148;2023-12-20T14:47:36;8.80;61.20
19248;DHT22;9758;48.640;8.148;2023-12-20T14:50:21;8.70;61.10
19248;DHT22;9758;48.640;8.148;2023-12-20T14:52:48;8.70;61.20
19248;DHT22;9758;48.640;8.148;2023-12-20T14:55:15;8.70;61.10
19248;DHT22;9758;48.640;8.148;2023-12-20T14:57:42;8.70;61.40
19248;DHT22;9758;48.640;8.148;2023-12-20T15:00:09;8.70;61.20
19248;DHT22;9758;48.640;8.148;2023-12-20T15:02:41;8.70;61.20
19248;DHT22;9758;48.640;8.148;2023-12-20T15:05:08;8.70;61.20
19248;DHT22;9758;48.640;8.148;2023-12-20T15:07:35;8.70;61.20
19248;DHT22;9758;48.640;8.148;2023-12-20T15:10:02;8.70;61.20
19248;DHT22;9758;48.640;8.148;2023-12-20T15:12:29;8.70;61.20
19248;DHT22;9758;48.640;8.148;2023-12-20T15:14:55;8.60;61.20
19248;DHT22;9758;48.640;8.148;2023-12-20T15:17:22;8.60;61.40
19248;DHT22;9758;48.640;8.148;2023-12-20T15:19:52;8.60;61.40
19248;DHT22;9758;48.640;8.148;2023-12-20T15:22:19;8.60;61.50
19248;DHT22;9758;48.640;8.148;2023-12-20T15:24:46;8.50;61.40
19248;DHT22;9758;48.640;8.148;2023-12-20T15:27:12;8.50;61.40
19248;DHT22;9758;48.640;8.148;2023-12-20T15:30:12;8.50;61.40
19248;DHT22;9758;48.640;8.148;2023-12-20T15:32:39;8.50;61.50
19248;DHT22;9758;48.640;8.148;2023-12-20T15:35:08;8.50;61.50
19248;DHT22;9758;48.640;8.148;2023-12-20T15:37:35;8.50;61.60
19248;DHT22;9758;48.640;8.148;2023-12-20T15:40:04;8.50;61.60
19248;DHT22;9758;48.640;8.148;2023-12-20T15:42:31;8.50;62.30
19248;DHT22;9758;48.640;8.148;2023-12-20T15:44:58;8.50;61.60
19248;DHT22;9758;48.640;8.148;2023-12-20T15:47:24;8.50;61.60
19248;DHT22;9758;48.640;8.148;2023-12-20T15:50:01;8.40;62.30
19248;DHT22;9758;48.640;8.148;2023-12-20T15:52:30;8.50;61.60
19248;DHT22;9758;48.640;8.148;2023-12-20T15:54:56;8.40;61.50
19248;DHT22;9758;48.640;8.148;2023-12-20T15:57:23;8.40;61.60
19248;DHT22;9758;48.640;8.148;2023-12-20T15:59:50;8.40;61.60
19248;DHT22;9758;48.640;8.148;2023-12-20T16:02:16;8.40;61.70
19248;DHT22;9758;48.640;8.148;2023-12-20T16:04:43;8.30;61.60
19248;DHT22;9758;48.640;8.148;2023-12-20T16:07:10;8.30;61.70